Time;durP1;ratioP1;P1;durP2;ratioP2;P2;SDS_P1;SDS_P2;PMS_P1;PMS_P2;Temp;Humidity;BMP_temperature;BMP_pressure;BME280_temperature;BME280_humidity;BME280_pressure;Samples;Min_cycle;Max_cycle;Signal;HPM_P1;HPM_P2
2024/03/27 00:00:16;;;;;;;0.70;0.70;;;3.40;99.90;;;;;;6248483;22;20168;-71
2024/03/27 00:02:42;;;;;;;0.70;0.70;;;3.40;99.90;;;;;;6275331;22;20179;-71
2024/03/27 00:05:08;;;;;;;1.75;1.65;;;3.40;99.90;;;;;;6248425;22;20257;-72
2024/03/27 00:07:59;;;;;;;0.70;0.70;;;3.40;99.90;;;;;;6275271;22;20614;-71
2024/03/27 00:10:25;;;;;;;0.70;0.70;;;3.40;99.90;;;;;;6245946;22;20251;-71
2024/03/27 00:12:51;;;;;;;0.52;0.52;;;3.40;99.90;;;;;;6277083;22;20567;-72
2024/03/27 00:15:17;;;;;;;3.30;1.05;;;3.40;99.90;;;;;;6277408;22;20218;-71
2024/03/27 00:17:43;;;;;;;0.80;0.80;;;3.40;99.90;;;;;;6277298;22;20528;-71
2024/03/27 00:20:10;;;;;;;0.82;0.82;;;3.40;99.90;;;;;;6277531;22;20168;-72
2024/03/27 00:22:36;;;;;;;0.90;0.90;;;3.30;99.90;;;;;;6277147;22;20577;-71
2024/03/27 00:25:01;;;;;;;0.70;0.70;;;3.30;99.90;;;;;;6250164;22;20204;-72
2024/03/27 00:27:30;;;;;;;0.75;0.75;;;3.30;99.90;;;;;;6250112;22;20634;-71
2024/03/27 00:30:01;;;;;;;0.50;0.50;;;3.30;99.90;;;;;;6249990;22;20656;-71
2024/03/27 00:32:27;;;;;;;1.00;1.00;;;3.30;99.90;;;;;;6277075;22;20648;-71
2024/03/27 00:34:52;;;;;;;0.60;0.60;;;3.30;99.90;;;;;;6277254;22;20243;-71
2024/03/27 00:37:18;;;;;;;0.70;0.70;;;3.30;99.90;;;;;;6277433;22;20175;-71
2024/03/27 00:39:44;;;;;;;0.70;0.70;;;3.20;99.90;;;;;;6277306;22;20173;-71
2024/03/27 00:42:12;;;;;;;0.70;0.70;;;3.20;99.90;;;;;;6250025;22;20521;-71
2024/03/27 00:44:43;;;;;;;0.80;0.80;;;3.20;99.90;;;;;;6277062;22;20686;-71
2024/03/27 00:47:14;;;;;;;1.08;1.08;;;3.20;99.90;;;;;;6254386;22;20206;-72
2024/03/27 00:49:40;;;;;;;1.55;1.10;;;3.20;99.90;;;;;;6281591;22;20634;-71
2024/03/27 00:52:06;;;;;;;0.70;0.70;;;3.20;99.90;;;;;;6249854;22;20235;-71
2024/03/27 00:54:34;;;;;;;0.60;0.60;;;3.10;99.90;;;;;;6276647;22;20609;-71
2024/03/27 00:57:00;;;;;;;0.70;0.70;;;3.10;99.90;;;;;;6277062;22;20618;-71
2024/03/27 00:59:30;;;;;;;0.70;0.70;;;3.10;99.90;;;;;;6276833;22;20175;-71
2024/03/27 01:01:56;;;;;;;0.80;0.80;;;3.10;99.90;;;;;;6277550;22;20473;-71
2024/03/27 01:04:22;;;;;;;0.60;0.60;;;3.10;99.90;;;;;;6276628;22;20176;-71
2024/03/27 01:06:47;;;;;;;0.60;0.60;;;3.00;99.90;;;;;;6276998;22;20195;-71
2024/03/27 01:09:13;;;;;;;0.70;0.70;;;3.00;99.90;;;;;;6276438;22;20172;-71
2024/03/27 01:11:38;;;;;;;0.80;0.80;;;3.10;99.90;;;;;;6276760;22;20269;-71
2024/03/27 01:14:04;;;;;;;0.90;0.90;;;3.10;99.90;;;;;;6249787;22;20514;-71
2024/03/27 01:16:30;;;;;;;0.73;0.73;;;3.10;99.90;;;;;;6249542;22;20506;-71
2024/03/27 01:18:55;;;;;;;0.80;0.80;;;3.00;99.90;;;;;;6249740;22;20204;-71
2024/03/27 01:21:21;;;;;;;0.90;0.90;;;3.00;99.90;;;;;;6276228;22;20169;-71
2024/03/27 01:23:47;;;;;;;0.60;0.60;;;3.00;99.90;;;;;;6276849;22;20242;-71
2024/03/27 01:26:12;;;;;;;0.70;0.70;;;3.00;99.90;;;;;;6276859;22;20200;-71
2024/03/27 01:28:38;;;;;;;0.70;0.70;;;3.00;99.90;;;;;;6276657;22;20532;-71
2024/03/27 01:31:04;;;;;;;0.60;0.60;;;3.00;99.90;;;;;;6276583;22;20531;-71
2024/03/27 01:33:30;;;;;;;0.70;0.70;;;3.00;99.90;;;;;;6276527;22;20629;-71
2024/03/27 01:35:55;;;;;;;0.60;0.60;;;3.00;99.90;;;;;;6276786;22;20239;-71
2024/03/27 01:38:21;;;;;;;0.70;0.70;;;3.00;99.90;;;;;;6276509;22;20164;-71
2024/03/27 01:40:46;;;;;;;0.70;0.70;;;3.00;99.90;;;;;;6276705;22;20164;-71
2024/03/27 01:43:12;;;;;;;0.63;0.63;;;2.90;99.90;;;;;;6249433;22;20180;-71
2024/03/27 01:45:38;;;;;;;0.70;0.70;;;2.80;99.90;;;;;;6276520;22;20266;-71
2024/03/27 01:48:04;;;;;;;0.60;0.60;;;2.80;99.90;;;;;;6276581;22;20168;-71
2024/03/27 01:50:30;;;;;;;0.68;0.68;;;2.80;99.90;;;;;;6276303;22;20293;-72
2024/03/27 01:52:58;;;;;;;0.70;0.70;;;2.80;99.90;;;;;;6249266;22;20191;-71
2024/03/27 01:55:24;;;;;;;0.65;0.65;;;2.90;99.90;;;;;;6248962;22;20257;-71
2024/03/27 01:58:09;;;;;;;0.60;0.60;;;2.90;99.90;;;;;;6276405;22;20255;-71
2024/03/27 02:00:35;;;;;;;0.77;0.77;;;2.90;99.90;;;;;;6276311;22;20188;-71
2024/03/27 02:03:02;;;;;;;0.70;0.70;;;2.90;99.90;;;;;;6276272;22;20173;-71
2024/03/27 02:05:28;;;;;;;0.88;0.88;;;2.90;99.90;;;;;;6275480;22;20171;-71
2024/03/27 02:07:53;;;;;;;0.80;0.80;;;2.90;99.90;;;;;;6249234;22;20180;-71
2024/03/27 02:10:19;;;;;;;1.13;1.10;;;2.90;99.90;;;;;;6275983;22;20176;-71
2024/03/27 02:12:45;;;;;;;0.70;0.70;;;2.90;99.90;;;;;;6248890;22;20188;-71
2024/03/27 02:15:11;;;;;;;0.70;0.70;;;2.90;99.90;;;;;;6275813;22;20168;-71
2024/03/27 02:17:37;;;;;;;0.70;0.70;;;2.90;99.90;;;;;;6276023;22;20164;-71
2024/03/27 02:20:06;;;;;;;0.70;0.70;;;2.80;99.90;;;;;;6276027;22;20171;-72
2024/03/27 02:22:33;;;;;;;0.70;0.70;;;2.90;99.90;;;;;;6275304;22;20169;-71
2024/03/27 02:25:10;;;;;;;0.80;0.80;;;2.90;99.90;;;;;;6249027;22;20191;-71
2024/03/27 02:27:36;;;;;;;0.60;0.60;;;2.80;99.90;;;;;;6275249;22;20254;-70
2024/03/27 02:30:02;;;;;;;0.98;0.82;;;2.90;99.90;;;;;;6275361;22;20191;-71
2024/03/27 02:42:50;;;;;;;0.70;0.70;;;2.90;99.90;;;;;;6151785;23;20205;-72
2024/03/27 02:49:20;;;;;;;0.80;0.80;;;2.90;99.90;;;;;;6138758;23;20537;-73
2024/03/27 02:52:13;;;;;;;0.80;0.80;;;2.90;99.90;;;;;;6157975;23;20551;-73
2024/03/27 03:19:49;;;;;;;1.30;1.20;;;2.90;99.90;;;;;;6016310;23;20211;-73
2024/03/27 03:32:22;;;;;;;0.60;0.60;;;2.90;99.90;;;;;;5980350;23;20202;-72
2024/03/27 03:35:00;;;;;;;0.50;0.50;;;2.90;99.90;;;;;;5983503;23;20175;-75
2024/03/27 03:38:15;;;;;;;0.70;0.70;;;2.90;99.90;;;;;;6012720;23;20244;-73
2024/03/27 03:41:44;;;;;;;;;;;;;;;;;;;;;
2024/03/27 03:47:35;;;;;;;0.52;0.52;;;3.00;99.90;;;;;;5987646;23;20266;-73
2024/03/27 03:50:00;;;;;;;0.90;0.90;;;3.00;99.90;;;;;;6059685;23;20620;-72
2024/03/27 03:52:32;;;;;;;1.08;1.08;;;3.00;99.90;;;;;;6069376;23;20548;-73
2024/03/27 03:59:06;;;;;;;0.70;0.70;;;3.00;99.90;;;;;;6121882;23;20226;-71
2024/03/27 04:02:15;;;;;;;0.60;0.60;;;3.00;99.90;;;;;;6126531;23;20260;-71
2024/03/27 04:11:48;;;;;;;0.70;0.70;;;3.10;99.90;;;;;;6052171;23;20177;-73
2024/03/27 04:14:14;;;;;;;0.80;0.80;;;3.00;99.90;;;;;;6077334;23;20267;-72
2024/03/27 04:24:08;;;;;;;0.70;0.70;;;3.00;99.90;;;;;;6113806;23;20196;-71
2024/03/27 04:32:53;;;;;;;0.80;0.80;;;3.00;99.90;;;;;;5911223;24;20226;-75
2024/03/27 04:46:40;;;;;;;1.00;0.93;;;3.00;99.90;;;;;;5723957;25;20626;-74
2024/03/27 04:52:58;;;;;;;0.70;0.70;;;3.00;99.90;;;;;;5780502;24;20215;-74
2024/03/27 05:02:34;;;;;;;0.70;0.70;;;2.90;99.90;;;;;;5773227;24;20214;-73
2024/03/27 05:07:55;;;;;;;0.57;0.57;;;2.90;99.90;;;;;;5744216;24;20195;-74
2024/03/27 05:10:21;;;;;;;0.80;0.80;;;2.90;99.90;;;;;;5861068;24;20226;-74
2024/03/27 05:12:46;;;;;;;0.98;0.98;;;2.90;99.90;;;;;;5870789;24;20197;-74
2024/03/27 05:15:12;;;;;;;0.73;0.73;;;2.90;99.90;;;;;;5870821;24;20256;-73
2024/03/27 05:17:39;;;;;;;0.88;0.88;;;2.90;99.90;;;;;;5870771;24;20189;-72
2024/03/27 05:20:06;;;;;;;1.83;1.67;;;2.90;99.90;;;;;;5933960;24;20640;-71
2024/03/27 05:22:32;;;;;;;0.70;0.70;;;2.90;99.90;;;;;;6005929;23;20589;-71
2024/03/27 05:24:58;;;;;;;0.70;0.70;;;3.00;99.90;;;;;;6094792;23;20164;-71
2024/03/27 05:27:27;;;;;;;0.70;0.70;;;2.90;99.90;;;;;;6094351;23;20207;-72
2024/03/27 05:29:52;;;;;;;0.60;0.60;;;3.00;99.90;;;;;;6094652;23;20180;-71
2024/03/27 05:32:18;;;;;;;0.77;0.77;;;2.90;99.90;;;;;;6071922;23;20192;-73
2024/03/27 05:34:44;;;;;;;0.70;0.70;;;2.90;99.90;;;;;;6096076;23;20180;-73
2024/03/27 05:37:09;;;;;;;0.60;0.60;;;3.00;99.90;;;;;;6095691;23;20176;-72
2024/03/27 05:39:35;;;;;;;0.70;0.70;;;3.00;99.90;;;;;;6094979;23;20172;-72
2024/03/27 05:42:00;;;;;;;3.40;1.92;;;3.00;99.90;;;;;;6094615;23;20177;-73
2024/03/27 05:44:26;;;;;;;0.60;0.60;;;3.00;99.90;;;;;;6094167;23;20202;-74
2024/03/27 05:46:53;;;;;;;1.80;1.67;;;2.90;99.90;;;;;;6094506;23;20182;-73
2024/03/27 05:49:19;;;;;;;0.70;0.70;;;2.90;99.90;;;;;;6094364;23;20180;-75
2024/03/27 05:51:44;;;;;;;1.00;1.00;;;3.00;99.90;;;;;;6094194;23;20204;-73
2024/03/27 05:54:10;;;;;;;0.60;0.60;;;2.90;99.90;;;;;;6094148;23;20245;-74
2024/03/27 05:56:35;;;;;;;0.70;0.70;;;2.90;99.90;;;;;;6094140;23;20176;-73
2024/03/27 05:59:01;;;;;;;2.15;1.13;;;2.90;99.90;;;;;;6094193;23;20172;-73
2024/03/27 06:01:27;;;;;;;0.70;0.70;;;3.00;99.90;;;;;;6069915;23;20192;-74
2024/03/27 06:03:55;;;;;;;1.00;1.00;;;3.00;99.90;;;;;;6069882;23;20274;-74
2024/03/27 06:06:21;;;;;;;0.80;0.80;;;3.00;99.90;;;;;;6093856;23;20231;-74
2024/03/27 06:08:49;;;;;;;0.80;0.80;;;3.10;99.90;;;;;;6212210;23;20550;-73
2024/03/27 06:11:15;;;;;;;0.70;0.70;;;3.10;99.90;;;;;;6245677;23;20180;-73
2024/03/27 06:13:41;;;;;;;0.68;0.68;;;3.00;99.90;;;;;;6245213;23;20622;-74
2024/03/27 06:16:07;;;;;;;0.70;0.70;;;3.10;99.90;;;;;;6218798;23;20262;-74
2024/03/27 06:18:32;;;;;;;0.73;0.73;;;3.10;99.90;;;;;;6218348;23;20599;-73
2024/03/27 06:20:58;;;;;;;0.63;0.63;;;3.10;99.90;;;;;;6245740;23;20173;-73
2024/03/27 06:23:24;;;;;;;0.70;0.70;;;3.10;99.90;;;;;;6245051;23;20173;-73
2024/03/27 06:25:54;;;;;;;1.40;1.30;;;3.10;99.90;;;;;;6218691;23;20292;-74
2024/03/27 06:28:20;;;;;;;6.18;1.60;;;3.20;99.90;;;;;;6245042;23;20675;-74
2024/03/27 06:30:45;;;;;;;0.70;0.70;;;3.20;99.90;;;;;;6245257;22;20224;-74
2024/03/27 06:33:11;;;;;;;0.65;0.65;;;3.20;99.90;;;;;;6245310;23;20185;-74
2024/03/27 06:35:37;;;;;;;0.60;0.60;;;3.10;99.90;;;;;;6244880;23;20600;-74
2024/03/27 06:38:03;;;;;;;0.60;0.60;;;3.20;99.90;;;;;;6245451;23;20504;-74
2024/03/27 06:40:28;;;;;;;0.90;0.90;;;3.20;99.90;;;;;;6245229;23;20243;-74
2024/03/27 06:42:54;;;;;;;0.70;0.70;;;3.30;99.90;;;;;;6218401;23;20567;-75
2024/03/27 06:45:20;;;;;;;0.70;0.70;;;3.20;99.90;;;;;;6245108;23;20259;-74
2024/03/27 06:47:46;;;;;;;0.70;0.70;;;3.30;99.90;;;;;;6218564;23;20259;-74
2024/03/27 06:50:12;;;;;;;0.70;0.70;;;3.30;99.90;;;;;;6245329;23;20181;-74
2024/03/27 06:52:37;;;;;;;0.70;0.70;;;3.30;99.90;;;;;;6244942;23;20525;-74
2024/03/27 06:55:06;;;;;;;0.80;0.80;;;3.40;99.90;;;;;;6218358;23;20173;-74
2024/03/27 06:57:32;;;;;;;0.63;0.63;;;3.40;99.90;;;;;;6218064;23;20192;-74
2024/03/27 06:59:58;;;;;;;0.50;0.50;;;3.40;99.90;;;;;;6245220;23;20595;-74
2024/03/27 07:02:24;;;;;;;0.80;0.80;;;3.40;99.90;;;;;;6244980;23;20252;-74
2024/03/27 07:04:51;;;;;;;0.85;0.85;;;3.50;99.90;;;;;;6245277;23;20169;-74
2024/03/27 07:07:16;;;;;;;1.25;1.17;;;3.50;99.90;;;;;;6245176;23;20196;-74
2024/03/27 07:09:42;;;;;;;0.57;0.57;;;3.60;99.90;;;;;;6244962;23;20184;-74
2024/03/27 07:12:08;;;;;;;0.80;0.80;;;3.60;99.90;;;;;;6245156;23;20541;-74
2024/03/27 07:14:33;;;;;;;0.60;0.60;;;3.70;99.90;;;;;;6218184;23;20515;-74
2024/03/27 07:16:59;;;;;;;0.80;0.80;;;3.70;99.90;;;;;;6218307;23;20226;-74
2024/03/27 07:19:25;;;;;;;1.25;1.15;;;3.80;99.90;;;;;;6244735;23;20176;-73
2024/03/27 07:21:51;;;;;;;0.70;0.70;;;3.80;99.90;;;;;;6245561;23;20200;-73
2024/03/27 07:24:16;;;;;;;0.70;0.70;;;3.80;99.90;;;;;;6244965;23;20169;-73
2024/03/27 07:26:43;;;;;;;1.80;1.35;;;3.90;99.90;;;;;;6244817;23;20569;-74
2024/03/27 07:29:09;;;;;;;1.20;1.13;;;3.90;99.90;;;;;;6244873;23;20603;-74
2024/03/27 07:31:35;;;;;;;0.75;0.75;;;4.00;99.90;;;;;;6266430;22;20218;-74
2024/03/27 07:34:00;;;;;;;0.80;0.80;;;3.90;99.90;;;;;;6275516;22;20215;-74
2024/03/27 07:36:26;;;;;;;1.05;1.00;;;3.90;99.90;;;;;;6275602;22;20164;-74
2024/03/27 07:38:51;;;;;;;1.00;1.00;;;3.90;99.90;;;;;;6275590;22;20164;-75
2024/03/27 07:41:17;;;;;;;0.80;0.80;;;4.00;99.90;;;;;;6248691;22;20260;-73
2024/03/27 07:43:43;;;;;;;0.60;0.60;;;4.00;99.90;;;;;;6248042;22;20176;-73
2024/03/27 07:46:11;;;;;;;0.85;0.85;;;4.10;99.90;;;;;;6248370;22;20176;-73
2024/03/27 07:48:36;;;;;;;1.02;1.02;;;4.20;99.90;;;;;;6275280;22;20220;-73
2024/03/27 07:51:02;;;;;;;0.80;0.80;;;4.20;99.90;;;;;;6275581;22;20171;-73
2024/03/27 07:53:28;;;;;;;0.70;0.70;;;4.20;99.90;;;;;;6247988;22;20219;-73
2024/03/27 07:55:58;;;;;;;0.70;0.70;;;4.30;99.90;;;;;;6275514;22;20450;-73
2024/03/27 07:58:23;;;;;;;0.60;0.60;;;4.30;99.90;;;;;;6275356;22;20175;-72
2024/03/27 08:00:50;;;;;;;0.60;0.60;;;4.40;99.90;;;;;;6275644;22;20172;-73
2024/03/27 08:03:16;;;;;;;1.30;1.20;;;4.40;99.90;;;;;;6275488;22;20172;-73
2024/03/27 08:05:43;;;;;;;0.70;0.70;;;4.50;99.90;;;;;;6248181;22;20630;-73
2024/03/27 08:08:09;;;;;;;0.80;0.80;;;4.60;99.90;;;;;;6275452;22;20168;-73
2024/03/27 08:10:35;;;;;;;1.05;1.02;;;4.60;99.90;;;;;;6275298;22;20180;-73
2024/03/27 08:13:01;;;;;;;1.10;1.10;;;4.80;99.90;;;;;;6275348;22;20210;-73
2024/03/27 08:15:28;;;;;;;0.98;0.98;;;4.90;99.90;;;;;;6275330;22;20165;-73
2024/03/27 08:17:54;;;;;;;0.75;0.75;;;4.90;99.90;;;;;;6248440;22;20641;-73
2024/03/27 08:20:20;;;;;;;0.80;0.80;;;4.90;99.90;;;;;;6275279;22;20164;-73
2024/03/27 08:22:46;;;;;;;1.25;1.15;;;5.00;99.90;;;;;;6275359;22;20184;-73
2024/03/27 08:25:12;;;;;;;0.73;0.73;;;4.90;99.90;;;;;;6275393;22;20179;-73
2024/03/27 08:27:37;;;;;;;0.80;0.80;;;4.80;99.90;;;;;;6274998;22;20173;-74
2024/03/27 08:30:04;;;;;;;0.60;0.60;;;4.90;99.90;;;;;;6275368;22;20254;-73
2024/03/27 08:32:33;;;;;;;0.75;0.75;;;5.00;99.90;;;;;;6276613;22;20717;-73
2024/03/27 08:35:04;;;;;;;0.80;0.80;;;5.00;99.90;;;;;;6277345;22;20164;-73
2024/03/27 08:37:30;;;;;;;0.90;0.90;;;4.90;99.90;;;;;;6277133;22;20168;-74
2024/03/27 08:39:55;;;;;;;1.75;1.10;;;5.00;99.90;;;;;;6277310;22;20160;-73
2024/03/27 08:42:21;;;;;;;1.00;1.00;;;5.00;99.90;;;;;;6276976;22;20172;-74
2024/03/27 08:44:48;;;;;;;0.90;0.90;;;5.00;99.90;;;;;;6249920;22;20550;-74
2024/03/27 08:47:14;;;;;;;0.70;0.70;;;5.10;99.90;;;;;;6277122;22;20200;-75
2024/03/27 08:49:39;;;;;;;0.85;0.80;;;5.20;99.90;;;;;;6276750;22;20176;-75
2024/03/27 08:52:05;;;;;;;1.20;1.17;;;5.30;99.90;;;;;;6249685;22;20176;-74
2024/03/27 08:54:31;;;;;;;0.70;0.70;;;5.40;99.90;;;;;;6276644;22;20615;-75
2024/03/27 08:56:56;;;;;;;0.75;0.75;;;5.40;99.90;;;;;;6276977;22;20512;-75
2024/03/27 08:59:22;;;;;;;0.80;0.80;;;5.30;99.90;;;;;;6276709;22;20554;-76
2024/03/27 09:01:48;;;;;;;1.02;1.02;;;5.30;99.90;;;;;;6276953;22;20610;-75
2024/03/27 09:04:13;;;;;;;0.60;0.60;;;5.40;99.90;;;;;;6276818;22;20168;-75
2024/03/27 09:06:39;;;;;;;0.90;0.90;;;5.40;99.90;;;;;;6276502;22;20172;-75
2024/03/27 09:09:05;;;;;;;0.90;0.90;;;5.30;99.90;;;;;;6276829;22;20191;-75
2024/03/27 09:11:30;;;;;;;1.75;1.23;;;5.30;99.90;;;;;;6249520;22;20274;-75
2024/03/27 09:13:56;;;;;;;0.70;0.70;;;5.40;99.90;;;;;;6276729;22;20626;-74
2024/03/27 09:16:22;;;;;;;0.60;0.60;;;5.50;99.90;;;;;;6276582;22;20239;-76
2024/03/27 09:18:48;;;;;;;1.10;1.10;;;5.70;99.90;;;;;;6249598;22;20672;-76
2024/03/27 09:21:14;;;;;;;0.80;0.80;;;5.90;99.90;;;;;;6276925;22;20654;-75
2024/03/27 09:23:39;;;;;;;0.70;0.70;;;5.90;99.90;;;;;;6276152;22;20180;-76
2024/03/27 09:26:05;;;;;;;0.70;0.70;;;5.80;99.90;;;;;;6249464;22;20208;-75
2024/03/27 09:28:31;;;;;;;0.88;0.88;;;5.80;99.90;;;;;;6276321;22;20736;-76
2024/03/27 09:31:02;;;;;;;1.10;1.02;;;5.90;99.90;;;;;;6276363;22;20218;-75
2024/03/27 09:33:28;;;;;;;0.88;0.88;;;5.80;99.90;;;;;;6276715;22;20516;-75
2024/03/27 09:35:53;;;;;;;0.80;0.80;;;5.90;99.90;;;;;;6276591;22;20248;-74
2024/03/27 09:38:19;;;;;;;2.28;2.08;;;5.90;99.90;;;;;;6276403;22;20164;-75
2024/03/27 09:40:48;;;;;;;0.70;0.70;;;6.10;99.90;;;;;;6276494;22;20186;-75
2024/03/27 09:43:15;;;;;;;0.80;0.80;;;6.20;99.90;;;;;;6248947;22;20168;-74
2024/03/27 09:45:46;;;;;;;0.70;0.70;;;6.20;99.90;;;;;;6276217;22;20247;-74
2024/03/27 09:48:13;;;;;;;0.88;0.88;;;6.20;99.90;;;;;;6249161;22;20626;-74
2024/03/27 09:50:38;;;;;;;0.60;0.60;;;6.20;99.90;;;;;;6249099;22;20259;-75
2024/03/27 09:53:06;;;;;;;0.70;0.70;;;6.20;99.90;;;;;;6276305;22;20258;-74
2024/03/27 09:55:33;;;;;;;1.45;1.35;;;6.20;99.90;;;;;;6276263;22;20168;-75
2024/03/27 09:58:18;;;;;;;0.70;0.70;;;6.10;99.90;;;;;;6276678;22;20657;-75
2024/03/27 10:00:44;;;;;;;1.00;1.00;;;6.10;99.90;;;;;;6276170;22;20165;-74
2024/03/27 10:03:10;;;;;;;0.90;0.90;;;6.20;99.90;;;;;;6276440;22;20179;-74
2024/03/27 10:05:37;;;;;;;0.80;0.80;;;6.20;99.90;;;;;;6276209;22;20164;-74
2024/03/27 10:08:03;;;;;;;2.05;1.65;;;6.20;99.90;;;;;;6276419;22;20230;-75
2024/03/27 10:10:30;;;;;;;1.13;1.08;;;6.30;99.90;;;;;;6276178;22;20164;-74
2024/03/27 10:12:58;;;;;;;0.73;0.73;;;6.30;99.90;;;;;;6276181;22;20180;-74
2024/03/27 10:15:25;;;;;;;0.70;0.70;;;6.30;99.90;;;;;;6276087;22;20169;-74
2024/03/27 10:17:50;;;;;;;0.77;0.77;;;6.20;99.90;;;;;;6249176;22;20517;-74
2024/03/27 10:20:16;;;;;;;0.80;0.80;;;6.30;99.90;;;;;;6276482;22;20164;-74
2024/03/27 10:22:42;;;;;;;0.70;0.70;;;6.30;99.90;;;;;;6276161;22;20176;-74
2024/03/27 10:25:09;;;;;;;3.80;2.65;;;6.30;99.90;;;;;;6276270;22;20175;-75
2024/03/27 10:27:36;;;;;;;0.70;0.70;;;6.40;99.90;;;;;;6275872;22;20222;-74
2024/03/27 10:30:02;;;;;;;0.70;0.70;;;6.50;99.90;;;;;;6276036;22;20175;-74
2024/03/27 10:32:31;;;;;;;1.17;1.08;;;6.60;99.90;;;;;;6275901;22;20250;-73
2024/03/27 10:34:56;;;;;;;0.80;0.80;;;6.70;99.90;;;;;;6276130;22;20609;-73
2024/03/27 10:37:23;;;;;;;1.55;1.45;;;6.80;99.90;;;;;;6248740;22;20226;-73
2024/03/27 10:39:50;;;;;;;0.60;0.60;;;7.10;99.90;;;;;;6276060;22;20238;-73
2024/03/27 10:42:22;;;;;;;0.80;0.80;;;7.20;99.90;;;;;;6276217;22;20164;-73
2024/03/27 10:44:50;;;;;;;0.80;0.80;;;7.20;99.90;;;;;;6248773;22;20180;-75
2024/03/27 10:47:21;;;;;;;0.70;0.70;;;7.30;99.90;;;;;;6276057;22;20172;-74
2024/03/27 10:49:47;;;;;;;1.00;1.00;;;7.30;99.90;;;;;;6275987;22;20624;-74
2024/03/27 10:52:17;;;;;;;0.80;0.80;;;7.10;99.90;;;;;;6248675;22;20215;-74
2024/03/27 10:54:44;;;;;;;2.10;1.00;;;7.00;99.90;;;;;;6275386;22;20214;-73
2024/03/27 10:57:13;;;;;;;0.70;0.70;;;7.00;99.90;;;;;;6275950;22;20251;-73
2024/03/27 10:59:42;;;;;;;0.80;0.80;;;7.10;99.90;;;;;;6275744;22;20176;-75
2024/03/27 11:02:09;;;;;;;0.90;0.90;;;7.10;99.90;;;;;;6275802;22;20176;-74
2024/03/27 11:04:39;;;;;;;1.55;1.25;;;7.10;99.90;;;;;;6275719;22;20164;-73
2024/03/27 11:07:07;;;;;;;0.88;0.88;;;7.30;99.90;;;;;;6275929;22;20294;-73
2024/03/27 11:09:34;;;;;;;1.02;1.02;;;7.30;99.90;;;;;;6275719;22;20175;-74
2024/03/27 11:12:01;;;;;;;0.60;0.60;;;7.30;99.90;;;;;;6275620;22;20603;-73
2024/03/27 11:14:26;;;;;;;0.70;0.70;;;7.30;99.90;;;;;;6275608;22;20172;-74
2024/03/27 11:16:59;;;;;;;0.80;0.80;;;7.20;99.90;;;;;;6275590;22;20261;-74
2024/03/27 11:19:43;;;;;;;0.90;0.90;;;7.20;99.90;;;;;;6248378;22;20206;-74
2024/03/27 11:22:17;;;;;;;0.80;0.80;;;7.20;99.90;;;;;;6276281;22;20641;-74
2024/03/27 11:24:44;;;;;;;0.80;0.80;;;7.60;99.90;;;;;;6248200;22;20180;-75
2024/03/27 11:27:10;;;;;;;0.60;0.60;;;8.20;99.90;;;;;;6275677;22;20172;-75
2024/03/27 11:29:40;;;;;;;0.98;0.98;;;8.60;99.90;;;;;;6275415;22;20207;-75
2024/03/27 11:32:08;;;;;;;0.70;0.70;;;8.80;99.90;;;;;;6275287;22;20654;-75
2024/03/27 11:34:34;;;;;;;0.82;0.82;;;8.90;99.90;;;;;;6275428;22;20218;-74
2024/03/27 11:37:00;;;;;;;0.70;0.70;;;8.90;99.90;;;;;;6248634;22;20549;-74
2024/03/27 11:39:27;;;;;;;1.20;1.17;;;9.00;99.90;;;;;;6275340;22;20180;-74
2024/03/27 11:41:53;;;;;;;0.70;0.70;;;8.90;99.90;;;;;;6275554;22;20168;-74
2024/03/27 11:44:19;;;;;;;1.85;1.33;;;9.00;99.90;;;;;;6248334;22;20172;-75
2024/03/27 11:46:46;;;;;;;0.70;0.70;;;8.90;99.90;;;;;;6248211;22;20180;-75
2024/03/27 11:49:15;;;;;;;0.70;0.70;;;8.70;99.90;;;;;;6275488;22;20665;-74
2024/03/27 11:51:41;;;;;;;1.00;1.00;;;8.80;99.90;;;;;;6275367;22;20183;-73
2024/03/27 11:54:08;;;;;;;0.75;0.75;;;8.90;99.90;;;;;;6275355;22;20180;-74
2024/03/27 11:56:37;;;;;;;0.60;0.60;;;9.40;99.90;;;;;;6275334;22;20168;-75
2024/03/27 11:59:04;;;;;;;0.70;0.70;;;9.60;99.90;;;;;;6275592;22;20164;-74
2024/03/27 12:01:30;;;;;;;0.70;0.70;;;9.70;99.90;;;;;;6275435;22;20171;-75
2024/03/27 12:03:57;;;;;;;0.70;0.70;;;9.60;99.90;;;;;;6275515;22;20178;-74
2024/03/27 12:06:25;;;;;;;0.70;0.70;;;9.70;99.90;;;;;;6276727;22;20176;-74
2024/03/27 12:08:52;;;;;;;0.70;0.70;;;9.50;99.90;;;;;;6277399;22;20222;-74
2024/03/27 12:11:22;;;;;;;0.90;0.90;;;9.30;99.90;;;;;;6250359;22;20186;-73
2024/03/27 12:13:49;;;;;;;0.80;0.80;;;9.00;99.90;;;;;;6277178;22;20563;-74
2024/03/27 12:16:15;;;;;;;1.08;1.08;;;9.10;99.90;;;;;;6277419;22;20168;-74
2024/03/27 12:18:45;;;;;;;0.60;0.60;;;9.10;99.90;;;;;;6277384;22;20217;-75
2024/03/27 12:21:12;;;;;;;0.80;0.80;;;9.40;99.90;;;;;;6277615;22;20691;-76
2024/03/27 12:23:39;;;;;;;0.95;0.95;;;9.60;99.90;;;;;;6277153;22;20176;-75
2024/03/27 12:26:15;;;;;;;3.03;1.40;;;9.60;99.90;;;;;;6277357;22;20196;-74
2024/03/27 12:28:44;;;;;;;2.17;1.75;;;9.60;99.90;;;;;;6277099;22;20218;-75
2024/03/27 12:31:10;;;;;;;1.08;1.08;;;9.60;99.90;;;;;;6277115;22;20192;-75
2024/03/27 12:33:37;;;;;;;0.63;0.63;;;9.30;99.90;;;;;;6277001;22;20238;-76
2024/03/27 12:36:04;;;;;;;0.70;0.70;;;9.00;99.90;;;;;;6277236;22;20168;-75
2024/03/27 12:38:29;;;;;;;0.70;0.70;;;8.80;99.90;;;;;;6277026;22;20477;-76
2024/03/27 12:40:55;;;;;;;0.70;0.70;;;8.90;99.90;;;;;;6249877;22;20175;-75
2024/03/27 12:43:21;;;;;;;0.80;0.80;;;8.80;99.90;;;;;;6276940;22;20218;-75
2024/03/27 12:45:47;;;;;;;0.65;0.65;;;8.80;99.90;;;;;;6277166;22;20594;-75
2024/03/27 12:48:21;;;;;;;1.17;1.10;;;8.90;99.90;;;;;;6249847;22;20175;-76
2024/03/27 12:50:50;;;;;;;0.80;0.80;;;8.90;99.90;;;;;;6277127;22;20225;-76
2024/03/27 12:53:17;;;;;;;0.73;0.73;;;9.00;99.90;;;;;;6249714;22;20220;-76
2024/03/27 12:55:43;;;;;;;0.80;0.80;;;9.10;99.90;;;;;;6277108;22;20172;-75
2024/03/27 12:58:09;;;;;;;1.33;1.23;;;9.20;99.90;;;;;;6249791;22;20172;-75
2024/03/27 13:00:37;;;;;;;1.00;1.00;;;9.20;99.90;;;;;;6276783;22;20213;-76
2024/03/27 13:03:03;;;;;;;0.60;0.60;;;9.20;99.90;;;;;;6276800;22;20172;-76
2024/03/27 13:05:29;;;;;;;1.00;1.00;;;9.20;99.90;;;;;;6276543;22;20233;-75
2024/03/27 13:07:55;;;;;;;0.70;0.70;;;9.20;99.90;;;;;;6276657;22;20196;-75
2024/03/27 13:10:21;;;;;;;1.08;0.98;;;9.10;99.90;;;;;;6276631;22;20598;-76
2024/03/27 13:12:47;;;;;;;0.70;0.70;;;9.20;99.90;;;;;;6276753;22;20192;-76
2024/03/27 13:15:13;;;;;;;0.80;0.80;;;9.10;99.90;;;;;;6276825;22;20550;-76
2024/03/27 13:17:40;;;;;;;2.35;1.85;;;9.00;99.90;;;;;;6276300;22;20776;-76
2024/03/27 13:20:07;;;;;;;0.70;0.70;;;9.10;99.90;;;;;;6276621;22;20168;-76
2024/03/27 13:22:33;;;;;;;0.63;0.63;;;9.20;99.90;;;;;;6276536;22;20218;-75
2024/03/27 13:24:59;;;;;;;1.42;1.13;;;9.20;99.90;;;;;;6276715;22;20491;-75
2024/03/27 13:27:26;;;;;;;0.80;0.80;;;9.20;99.90;;;;;;6276543;22;20591;-75
2024/03/27 13:29:52;;;;;;;0.80;0.80;;;9.20;99.90;;;;;;6276413;22;20562;-75
2024/03/27 13:32:18;;;;;;;0.90;0.90;;;9.30;99.90;;;;;;6276681;22;20180;-76
2024/03/27 13:34:43;;;;;;;1.27;1.25;;;9.20;99.90;;;;;;6276413;22;20168;-76
2024/03/27 13:37:09;;;;;;;0.80;0.80;;;9.20;99.90;;;;;;6276559;22;20168;-75
2024/03/27 13:39:35;;;;;;;0.70;0.70;;;9.30;99.90;;;;;;6276354;22;20243;-76
2024/03/27 13:42:00;;;;;;;0.65;0.65;;;9.30;99.90;;;;;;6276632;22;20172;-75
2024/03/27 13:44:26;;;;;;;1.30;1.20;;;9.30;99.90;;;;;;6276172;22;20168;-76
2024/03/27 13:46:52;;;;;;;2.90;1.13;;;9.30;99.90;;;;;;6276446;22;20164;-76
2024/03/27 13:49:17;;;;;;;0.80;0.80;;;9.40;99.90;;;;;;6276478;22;20169;-76
2024/03/27 13:51:43;;;;;;;0.70;0.70;;;9.50;99.90;;;;;;6276197;22;20171;-76
2024/03/27 13:54:11;;;;;;;0.70;0.70;;;9.40;99.90;;;;;;6276329;22;20184;-75
2024/03/27 13:56:36;;;;;;;0.70;0.70;;;9.30;99.90;;;;;;6276380;22;20202;-76
2024/03/27 13:59:02;;;;;;;0.82;0.82;;;9.30;99.90;;;;;;6276391;22;20171;-76
2024/03/27 14:01:28;;;;;;;1.08;1.08;;;9.30;99.90;;;;;;6276034;22;20251;-75
2024/03/27 14:03:54;;;;;;;0.98;0.98;;;9.30;99.90;;;;;;6276288;22;20226;-75
2024/03/27 14:06:19;;;;;;;0.70;0.70;;;9.40;99.90;;;;;;6275769;22;20563;-75
2024/03/27 14:08:45;;;;;;;0.80;0.80;;;9.30;99.90;;;;;;6276281;22;20172;-75
2024/03/27 14:11:11;;;;;;;0.80;0.80;;;9.40;99.90;;;;;;6249166;22;20188;-75
2024/03/27 14:13:36;;;;;;;0.90;0.90;;;9.40;99.90;;;;;;6276269;22;20582;-76
2024/03/27 14:16:02;;;;;;;0.90;0.90;;;9.50;99.90;;;;;;6276209;22;20168;-75
2024/03/27 14:18:28;;;;;;;0.90;0.90;;;9.50;99.90;;;;;;6276099;22;20511;-75
2024/03/27 14:20:53;;;;;;;0.70;0.70;;;9.70;99.90;;;;;;6276416;22;20168;-75
2024/03/27 14:23:20;;;;;;;0.65;0.65;;;9.80;99.90;;;;;;6275941;22;20511;-75
2024/03/27 14:25:46;;;;;;;0.70;0.70;;;9.70;99.90;;;;;;6276186;22;20168;-75
2024/03/27 14:28:11;;;;;;;1.70;1.48;;;9.80;99.90;;;;;;6276304;22;20176;-75
2024/03/27 14:30:37;;;;;;;10.60;3.42;;;9.70;99.90;;;;;;6275708;22;20649;-75
2024/03/27 14:33:03;;;;;;;0.70;0.70;;;9.50;99.90;;;;;;6248945;22;20263;-74
2024/03/27 14:35:29;;;;;;;0.60;0.60;;;9.60;99.90;;;;;;6275907;22;20175;-74
2024/03/27 14:37:55;;;;;;;0.60;0.60;;;9.70;99.90;;;;;;6276122;22;20168;-74
2024/03/27 14:40:20;;;;;;;0.70;0.70;;;9.70;99.90;;;;;;6275831;22;20183;-74